Time;durP1;ratioP1;P1;durP2;ratioP2;P2;SDS_P1;SDS_P2;PMS_P1;PMS_P2;Temp;Humidity;BMP_temperature;BMP_pressure;BME280_temperature;BME280_humidity;BME280_pressure;Samples;Min_cycle;Max_cycle;Signal;HPM_P1;HPM_P2
2023/06/02 00:01:21;;;;;;;4.93;4.53;;;17.90;99.90;;;;;;5091877;28;20228;-72
2023/06/02 00:03:48;;;;;;;6.63;5.28;;;17.90;99.90;;;;;;5092318;28;20216;-74
2023/06/02 00:06:15;;;;;;;5.55;4.95;;;17.80;99.90;;;;;;5092219;28;20205;-74
2023/06/02 00:08:43;;;;;;;7.43;5.07;;;17.80;99.90;;;;;;5092213;28;20205;-78
2023/06/02 00:11:13;;;;;;;7.57;5.25;;;17.80;99.90;;;;;;5092310;28;20201;-72
2023/06/02 00:13:41;;;;;;;4.88;4.38;;;17.80;99.90;;;;;;5091962;28;20209;-78
2023/06/02 00:16:09;;;;;;;5.50;4.82;;;17.80;99.90;;;;;;5091919;28;21990;-72
2023/06/02 00:18:37;;;;;;;5.88;5.13;;;17.80;99.90;;;;;;5091931;28;20209;-76
2023/06/02 00:21:06;;;;;;;5.30;4.80;;;17.70;99.90;;;;;;5092261;28;20241;-76
2023/06/02 00:23:33;;;;;;;4.40;4.00;;;17.70;99.90;;;;;;5091767;28;20665;-73
2023/06/02 00:26:02;;;;;;;5.45;5.05;;;17.70;99.90;;;;;;5092139;28;20209;-75
2023/06/02 00:28:29;;;;;;;4.20;3.80;;;17.70;99.90;;;;;;5091362;28;20205;-71
2023/06/02 00:30:56;;;;;;;7.07;4.65;;;17.70;99.90;;;;;;5092297;28;20205;-76
2023/06/02 00:33:24;;;;;;;5.15;4.65;;;17.70;99.90;;;;;;5076409;28;20229;-74
2023/06/02 00:35:51;;;;;;;4.78;4.15;;;17.70;99.90;;;;;;5076700;28;20206;-71
2023/06/02 00:38:18;;;;;;;5.30;4.80;;;17.60;99.90;;;;;;5071547;28;20210;-76
2023/06/02 00:40:45;;;;;;;6.47;4.55;;;17.60;99.90;;;;;;5070961;28;20214;-76
2023/06/02 00:43:13;;;;;;;5.25;4.75;;;17.50;99.90;;;;;;5071696;28;20635;-74
2023/06/02 00:45:40;;;;;;;5.93;5.43;;;17.50;99.90;;;;;;5070901;28;20217;-73
2023/06/02 00:48:07;;;;;;;5.97;4.97;;;17.50;99.90;;;;;;5071673;28;20202;-73
2023/06/02 00:50:35;;;;;;;5.90;5.18;;;17.50;99.90;;;;;;5071025;28;20214;-77
2023/06/02 00:53:02;;;;;;;4.88;4.38;;;17.40;99.90;;;;;;5071087;28;20253;-73
2023/06/02 00:55:31;;;;;;;6.72;5.57;;;17.40;99.90;;;;;;5070953;28;20244;-70
2023/06/02 00:57:59;;;;;;;4.88;4.38;;;17.30;99.90;;;;;;5070712;28;20198;-74
2023/06/02 01:00:33;;;;;;;5.47;4.97;;;17.20;99.90;;;;;;5071568;28;20236;-73
2023/06/02 01:03:00;;;;;;;5.70;5.20;;;17.20;99.90;;;;;;5071147;28;20263;-72
2023/06/02 01:05:27;;;;;;;5.18;4.40;;;17.10;99.90;;;;;;5071031;28;20646;-72
2023/06/02 01:08:00;;;;;;;5.32;4.82;;;17.10;99.90;;;;;;5070946;28;20210;-74
2023/06/02 01:10:28;;;;;;;7.88;5.28;;;17.10;99.90;;;;;;5071055;28;20210;-71
2023/06/02 01:12:56;;;;;;;7.50;6.72;;;17.10;99.90;;;;;;5069988;28;20261;-78
2023/06/02 01:15:23;;;;;;;8.15;5.88;;;17.10;99.90;;;;;;5071371;28;20237;-71
2023/06/02 01:17:52;;;;;;;6.13;4.57;;;17.10;99.90;;;;;;5070577;28;20315;-71
2023/06/02 01:20:21;;;;;;;6.72;5.32;;;17.00;99.90;;;;;;5070664;28;20208;-71
2023/06/02 01:23:01;;;;;;;5.20;4.72;;;16.90;99.90;;;;;;5070645;28;20788;-76
2023/06/02 01:25:30;;;;;;;5.32;4.82;;;16.90;99.90;;;;;;5070562;28;20202;-76
2023/06/02 01:28:02;;;;;;;7.35;5.25;;;16.90;99.90;;;;;;5070737;28;20253;-75
2023/06/02 01:30:31;;;;;;;6.57;5.85;;;16.90;99.90;;;;;;5070306;28;20271;-74
2023/06/02 01:33:05;;;;;;;5.97;5.40;;;16.90;99.90;;;;;;5070437;28;20614;-78
2023/06/02 01:35:39;;;;;;;6.07;5.00;;;16.80;99.90;;;;;;5069995;28;20233;-73
2023/06/02 01:38:06;;;;;;;6.18;5.57;;;16.80;99.90;;;;;;5070746;28;20670;-73
2023/06/02 01:40:36;;;;;;;6.40;4.57;;;16.80;99.90;;;;;;5069962;28;20297;-74
2023/06/02 01:43:05;;;;;;;5.75;5.13;;;16.70;99.90;;;;;;5070465;28;20245;-71
2023/06/02 01:45:33;;;;;;;6.03;5.43;;;16.70;99.90;;;;;;5070031;28;20201;-76
2023/06/02 01:48:04;;;;;;;7.65;5.85;;;16.70;99.90;;;;;;5070854;28;20291;-72
2023/06/02 01:50:32;;;;;;;6.32;5.63;;;16.70;99.90;;;;;;5070158;28;20241;-70
2023/06/02 01:52:59;;;;;;;8.05;6.80;;;16.40;99.90;;;;;;5070342;28;20262;-78
2023/06/02 01:55:26;;;;;;;6.60;5.53;;;16.40;99.90;;;;;;5070312;28;20241;-70
2023/06/02 01:57:54;;;;;;;6.05;5.50;;;16.50;99.90;;;;;;5070164;28;20238;-76
2023/06/02 02:00:22;;;;;;;5.93;5.15;;;16.50;99.90;;;;;;5070750;28;20606;-71
2023/06/02 02:02:49;;;;;;;7.53;6.35;;;16.60;99.90;;;;;;5069983;28;20237;-74
2023/06/02 02:05:16;;;;;;;6.25;5.65;;;16.60;99.90;;;;;;5070149;28;21157;-72
2023/06/02 02:07:44;;;;;;;8.38;5.40;;;16.60;99.90;;;;;;5069968;28;20238;-72
2023/06/02 02:10:11;;;;;;;7.40;5.53;;;16.60;99.90;;;;;;5070137;28;20229;-73
2023/06/02 02:12:39;;;;;;;7.35;5.70;;;16.60;99.90;;;;;;5069631;28;20240;-76
2023/06/02 02:15:09;;;;;;;7.32;6.53;;;16.60;99.90;;;;;;5070560;28;20201;-74
2023/06/02 02:17:44;;;;;;;6.32;5.72;;;16.50;99.90;;;;;;5070063;28;20263;-75
2023/06/02 02:20:16;;;;;;;7.05;6.38;;;16.50;99.90;;;;;;5070234;28;20209;-73
2023/06/02 02:22:43;;;;;;;7.55;6.90;;;16.40;99.90;;;;;;5069801;28;20203;-75
2023/06/02 02:25:10;;;;;;;7.63;6.93;;;16.40;99.90;;;;;;5059476;28;20233;-77
2023/06/02 02:27:37;;;;;;;8.40;7.53;;;16.30;99.90;;;;;;5073894;28;20245;-77
2023/06/02 02:30:06;;;;;;;7.65;6.68;;;16.30;99.90;;;;;;5074025;28;20233;-77
2023/06/02 02:32:36;;;;;;;6.47;5.97;;;16.30;99.90;;;;;;5073506;28;20233;-74
2023/06/02 02:35:04;;;;;;;8.32;7.18;;;16.30;99.90;;;;;;5073938;28;20617;-80
2023/06/02 02:37:32;;;;;;;8.02;7.07;;;16.30;99.90;;;;;;5073548;28;20206;-73
2023/06/02 02:39:58;;;;;;;6.82;6.13;;;16.20;99.90;;;;;;5073598;28;20241;-75
2023/06/02 02:42:25;;;;;;;11.43;6.93;;;16.10;99.90;;;;;;5074110;28;20260;-71
2023/06/02 02:44:52;;;;;;;7.45;6.82;;;16.10;99.90;;;;;;5073607;28;20685;-76
2023/06/02 02:47:20;;;;;;;7.38;6.68;;;16.10;99.90;;;;;;5073819;28;20241;-75
2023/06/02 02:49:49;;;;;;;9.48;6.85;;;16.10;99.90;;;;;;5073253;28;20217;-76
2023/06/02 02:52:16;;;;;;;7.70;6.72;;;16.10;99.90;;;;;;5073221;28;20751;-74
2023/06/02 02:54:43;;;;;;;6.68;6.07;;;16.20;99.90;;;;;;5073105;28;20226;-77
2023/06/02 02:57:10;;;;;;;7.18;6.28;;;16.20;99.90;;;;;;5073727;28;20241;-76
2023/06/02 02:59:37;;;;;;;9.40;6.53;;;16.20;99.90;;;;;;5073065;28;20237;-79
2023/06/02 03:02:06;;;;;;;7.20;6.50;;;16.10;99.90;;;;;;5073507;28;20291;-72
2023/06/02 03:04:34;;;;;;;9.38;6.75;;;16.10;99.90;;;;;;5072698;28;20261;-75
2023/06/02 03:07:02;;;;;;;8.13;7.43;;;16.10;99.90;;;;;;5073672;28;20206;-75
2023/06/02 03:09:29;;;;;;;9.23;6.97;;;16.10;99.90;;;;;;5072741;28;20641;-72
2023/06/02 03:11:57;;;;;;;8.40;7.07;;;16.00;99.90;;;;;;5073294;28;20238;-70
2023/06/02 03:14:26;;;;;;;7.32;6.63;;;16.00;99.90;;;;;;5073506;28;20214;-75
2023/06/02 03:16:53;;;;;;;7.20;6.47;;;15.80;99.90;;;;;;5072955;28;20225;-76
2023/06/02 03:19:21;;;;;;;7.65;6.40;;;15.80;99.90;;;;;;5073109;28;20237;-70
2023/06/02 03:21:48;;;;;;;14.00;7.40;;;15.80;99.90;;;;;;5059415;28;20213;-76
2023/06/02 03:24:17;;;;;;;7.38;5.82;;;15.80;99.90;;;;;;5073101;28;20577;-79
2023/06/02 03:26:45;;;;;;;8.90;6.68;;;15.80;99.90;;;;;;5072459;28;20666;-73
2023/06/02 03:29:13;;;;;;;6.63;6.03;;;15.80;99.90;;;;;;5072899;28;20662;-74
2023/06/02 03:31:41;;;;;;;6.32;5.75;;;15.80;99.90;;;;;;5072267;28;20245;-75
2023/06/02 03:34:08;;;;;;;6.25;5.65;;;15.80;99.90;;;;;;5072645;28;20615;-76
2023/06/02 03:36:36;;;;;;;6.85;6.15;;;15.80;99.90;;;;;;5071536;28;20234;-73
2023/06/02 03:39:05;;;;;;;8.02;7.28;;;15.80;99.90;;;;;;5072520;28;20213;-74
2023/06/02 03:41:35;;;;;;;7.55;6.82;;;15.80;99.90;;;;;;5072136;28;20297;-73
2023/06/02 03:44:02;;;;;;;6.30;5.70;;;15.70;99.90;;;;;;5072481;28;20677;-73
2023/06/02 03:46:29;;;;;;;6.63;5.93;;;15.70;99.90;;;;;;5072630;28;20237;-76
2023/06/02 03:48:56;;;;;;;6.45;5.85;;;15.70;99.90;;;;;;5072515;28;20237;-75
2023/06/02 03:51:23;;;;;;;7.22;6.50;;;15.70;99.90;;;;;;5072804;28;20202;-79
2023/06/02 03:53:50;;;;;;;8.35;6.85;;;15.60;99.90;;;;;;5071945;28;20357;-80
2023/06/02 03:56:19;;;;;;;7.80;7.00;;;15.60;99.90;;;;;;5072779;28;20241;-75
2023/06/02 03:58:47;;;;;;;8.63;7.00;;;15.60;99.90;;;;;;5071949;28;20778;-73
2023/06/02 04:01:16;;;;;;;7.85;7.07;;;15.60;99.90;;;;;;5072418;28;20283;-74
2023/06/02 04:03:43;;;;;;;9.90;7.47;;;15.60;99.90;;;;;;5071862;28;20238;-74
2023/06/02 04:06:10;;;;;;;7.28;6.57;;;15.60;99.90;;;;;;5071990;28;20206;-77
2023/06/02 04:08:37;;;;;;;7.47;6.13;;;15.60;99.90;;;;;;5071881;28;20245;-74
2023/06/02 04:11:05;;;;;;;8.00;6.78;;;15.60;99.90;;;;;;5071944;28;20716;-77
2023/06/02 04:13:32;;;;;;;7.82;7.07;;;15.50;99.90;;;;;;5071728;28;20654;-76
2023/06/02 04:16:00;;;;;;;10.70;7.93;;;15.40;99.90;;;;;;5072098;28;20238;-75
2023/06/02 04:18:28;;;;;;;12.95;7.50;;;15.50;99.90;;;;;;5072031;28;20236;-76
2023/06/02 04:20:55;;;;;;;10.90;7.82;;;15.50;99.90;;;;;;5072288;28;20293;-73
2023/06/02 04:23:22;;;;;;;8.25;7.45;;;15.40;99.90;;;;;;5072077;28;20238;-74
2023/06/02 04:25:49;;;;;;;8.10;7.35;;;15.50;99.90;;;;;;5071373;28;20774;-72
2023/06/02 04:28:16;;;;;;;7.25;6.60;;;15.50;99.90;;;;;;5071518;28;20206;-79
2023/06/02 04:30:43;;;;;;;8.13;7.32;;;15.60;99.90;;;;;;5071484;28;20205;-76
2023/06/02 04:33:12;;;;;;;7.63;6.88;;;15.70;99.90;;;;;;5071618;28;20261;-78
2023/06/02 04:35:39;;;;;;;8.13;6.30;;;15.70;99.90;;;;;;5071138;28;20214;-82
2023/06/02 04:38:07;;;;;;;8.73;7.95;;;15.70;99.90;;;;;;5071377;28;20710;-79
2023/06/02 04:40:34;;;;;;;10.05;7.15;;;15.70;99.90;;;;;;5071082;28;20682;-81
2023/06/02 04:43:01;;;;;;;9.00;8.10;;;15.70;99.90;;;;;;5071852;28;20214;-79
2023/06/02 04:45:28;;;;;;;9.52;8.63;;;15.70;99.90;;;;;;5071503;28;20252;-78
2023/06/02 04:47:55;;;;;;;8.85;7.22;;;15.70;99.90;;;;;;5071776;28;20242;-78
2023/06/02 04:50:23;;;;;;;8.77;7.90;;;15.70;99.90;;;;;;5071400;28;20206;-80
2023/06/02 04:52:50;;;;;;;8.30;7.50;;;15.70;99.90;;;;;;5070630;28;20322;-76
2023/06/02 04:55:17;;;;;;;9.00;8.18;;;15.80;99.90;;;;;;5071550;28;20213;-76
2023/06/02 04:57:44;;;;;;;11.27;8.32;;;15.80;99.90;;;;;;5070231;28;20677;-81
2023/06/02 05:00:13;;;;;;;10.75;9.65;;;15.80;99.90;;;;;;5071409;28;20249;-74
2023/06/02 05:02:40;;;;;;;10.63;9.20;;;15.90;99.90;;;;;;5070312;28;20210;-80
2023/06/02 05:05:07;;;;;;;9.05;8.15;;;15.90;99.90;;;;;;5070918;28;20216;-79
2023/06/02 05:07:36;;;;;;;9.35;8.43;;;15.90;99.90;;;;;;5070675;28;20241;-77
2023/06/02 05:10:03;;;;;;;8.45;7.50;;;15.90;99.90;;;;;;5071221;28;20230;-81
2023/06/02 05:12:30;;;;;;;9.30;7.60;;;16.00;99.90;;;;;;5070594;28;20241;-74
2023/06/02 05:14:57;;;;;;;12.50;9.18;;;16.00;99.90;;;;;;5057033;28;20202;-79
2023/06/02 05:17:27;;;;;;;9.13;8.23;;;16.00;99.90;;;;;;5071152;28;20677;-76
2023/06/02 05:19:55;;;;;;;11.50;8.90;;;16.00;99.90;;;;;;5071126;28;20233;-81
2023/06/02 05:22:22;;;;;;;9.20;8.15;;;16.10;99.90;;;;;;5071420;28;20253;-72
2023/06/02 05:24:50;;;;;;;10.10;7.53;;;16.20;99.90;;;;;;5070418;28;20245;-80
2023/06/02 05:27:17;;;;;;;7.50;6.80;;;16.30;99.90;;;;;;5070931;28;20267;-76
2023/06/02 05:29:44;;;;;;;9.65;8.65;;;16.40;99.90;;;;;;5070403;28;20238;-74
2023/06/02 05:32:11;;;;;;;8.82;7.55;;;16.40;99.90;;;;;;5070668;28;20674;-75
2023/06/02 05:34:39;;;;;;;8.13;7.32;;;16.50;99.90;;;;;;5069808;28;20234;-75
2023/06/02 05:37:06;;;;;;;8.05;7.30;;;16.50;99.90;;;;;;5070744;28;20202;-76
2023/06/02 05:39:33;;;;;;;7.70;6.90;;;16.60;99.90;;;;;;5070268;28;20252;-78
2023/06/02 05:42:01;;;;;;;9.45;7.45;;;16.70;99.90;;;;;;5070334;28;20206;-75
2023/06/02 05:44:28;;;;;;;8.80;7.60;;;16.70;99.90;;;;;;5070576;28;20242;-78
2023/06/02 05:46:55;;;;;;;8.82;7.95;;;16.70;99.90;;;;;;5070635;28;20241;-78
2023/06/02 05:49:22;;;;;;;6.90;6.20;;;16.80;99.90;;;;;;5070584;28;20291;-78
2023/06/02 05:51:49;;;;;;;8.80;7.20;;;16.90;99.90;;;;;;5070362;28;20253;-77
2023/06/02 05:54:16;;;;;;;7.60;6.90;;;16.90;99.90;;;;;;5070192;28;20798;-78
2023/06/02 05:56:43;;;;;;;9.25;7.63;;;17.00;99.90;;;;;;5070074;28;20202;-81
2023/06/02 05:59:11;;;;;;;9.20;6.90;;;17.10;99.90;;;;;;5069952;28;20244;-76
2023/06/02 06:01:38;;;;;;;9.65;6.88;;;17.10;99.90;;;;;;5070010;28;20704;-79
2023/06/02 06:04:05;;;;;;;8.43;7.53;;;17.20;99.90;;;;;;5070121;28;20237;-76
2023/06/02 06:06:32;;;;;;;7.10;6.38;;;17.30;99.90;;;;;;5070005;28;20237;-75
2023/06/02 06:08:59;;;;;;;7.95;7.07;;;17.40;99.90;;;;;;5070539;28;20234;-78
2023/06/02 06:11:26;;;;;;;6.70;6.00;;;17.50;99.90;;;;;;5070379;28;20202;-73
2023/06/02 06:13:53;;;;;;;7.70;6.90;;;17.60;99.90;;;;;;5070207;28;20261;-76
2023/06/02 06:16:21;;;;;;;7.65;6.18;;;17.70;99.90;;;;;;5070230;28;20238;-77
2023/06/02 06:18:48;;;;;;;8.57;6.25;;;17.80;99.90;;;;;;5069899;28;20249;-76
2023/06/02 06:21:15;;;;;;;6.78;6.18;;;17.90;99.90;;;;;;5070057;28;20245;-78
2023/06/02 06:23:42;;;;;;;8.13;7.22;;;18.00;99.90;;;;;;5069776;28;20241;-80
2023/06/02 06:26:09;;;;;;;8.27;6.85;;;18.00;99.90;;;;;;5070184;28;20241;-78
2023/06/02 06:28:36;;;;;;;8.05;6.47;;;18.10;99.90;;;;;;5069795;28;20213;-81
2023/06/02 06:31:03;;;;;;;6.85;6.15;;;18.20;99.90;;;;;;5069882;28;20636;-78
2023/06/02 06:33:31;;;;;;;7.00;6.38;;;18.40;99.90;;;;;;5069319;28;20261;-74
2023/06/02 06:35:58;;;;;;;7.47;6.60;;;18.50;99.90;;;;;;5070240;28;20241;-71
2023/06/02 06:38:25;;;;;;;7.07;6.03;;;18.50;99.90;;;;;;5070268;28;20230;-73
2023/06/02 06:40:52;;;;;;;7.88;6.38;;;18.70;99.90;;;;;;5069813;28;20648;-72
2023/06/02 06:43:19;;;;;;;5.85;5.35;;;18.80;99.90;;;;;;5069913;28;20246;-71
2023/06/02 06:45:46;;;;;;;8.65;5.65;;;18.90;99.90;;;;;;5069312;28;20213;-71
2023/06/02 06:48:13;;;;;;;6.15;5.50;;;19.00;99.90;;;;;;5070220;28;20263;-71
2023/06/02 06:50:41;;;;;;;6.88;6.18;;;19.10;99.90;;;;;;5069258;28;20242;-71
2023/06/02 06:53:09;;;;;;;10.02;6.38;;;19.30;99.90;;;;;;5069810;28;20666;-70
2023/06/02 06:55:36;;;;;;;7.68;5.80;;;19.30;99.90;;;;;;5069247;28;20295;-71
2023/06/02 06:58:03;;;;;;;5.63;5.13;;;19.30;99.90;;;;;;5069827;28;20206;-72
2023/06/02 07:00:31;;;;;;;6.30;5.70;;;19.40;99.90;;;;;;5087082;28;20302;-70
2023/06/02 07:02:58;;;;;;;5.57;4.95;;;19.60;99.90;;;;;;5090188;28;20206;-69
2023/06/02 07:05:25;;;;;;;6.63;5.75;;;19.60;99.90;;;;;;5090090;28;20681;-74
2023/06/02 07:07:53;;;;;;;6.28;5.65;;;19.80;99.90;;;;;;5089986;28;20229;-71
2023/06/02 07:10:20;;;;;;;9.10;5.97;;;19.90;99.90;;;;;;5090336;28;20241;-71
2023/06/02 07:12:47;;;;;;;10.07;5.60;;;20.00;99.90;;;;;;5093257;28;20249;-78
2023/06/02 07:15:14;;;;;;;7.00;5.30;;;20.00;99.90;;;;;;5093223;28;20317;-74
2023/06/02 07:17:42;;;;;;;5.18;4.68;;;20.10;99.90;;;;;;5092904;28;20205;-76
2023/06/02 07:20:11;;;;;;;8.32;5.07;;;20.20;99.90;;;;;;5093573;28;20233;-76
2023/06/02 07:22:38;;;;;;;4.85;4.45;;;20.40;99.90;;;;;;5092905;28;20272;-75
2023/06/02 07:25:07;;;;;;;5.07;4.15;;;20.60;99.90;;;;;;5093278;28;20245;-75
2023/06/02 07:27:34;;;;;;;4.38;4.03;;;20.70;99.90;;;;;;5092915;28;20231;-73
2023/06/02 07:30:02;;;;;;;6.78;4.30;;;21.50;99.90;;;;;;5093159;28;20241;-78
2023/06/02 07:32:29;;;;;;;5.55;4.65;;;22.30;99.90;;;;;;5092744;28;20255;-73
2023/06/02 07:34:56;;;;;;;4.55;4.15;;;21.60;99.90;;;;;;5093123;28;20236;-71
2023/06/02 07:37:23;;;;;;;5.15;4.65;;;21.50;99.90;;;;;;5093308;28;20237;-75
2023/06/02 07:39:50;;;;;;;4.68;3.85;;;21.40;99.90;;;;;;5064726;28;20252;-72
2023/06/02 07:42:21;;;;;;;4.97;4.05;;;21.40;99.90;;;;;;5075784;28;20210;-72
2023/06/02 07:44:48;;;;;;;6.97;4.43;;;21.50;99.90;;;;;;5071976;28;20210;-72
2023/06/02 07:47:15;;;;;;;3.67;3.05;;;21.60;99.90;;;;;;5072677;28;20237;-74
2023/06/02 07:49:42;;;;;;;4.85;3.95;;;21.60;99.90;;;;;;5072303;28;20259;-72
2023/06/02 07:52:09;;;;;;;5.10;4.50;;;21.70;99.90;;;;;;5072241;28;20202;-72
2023/06/02 07:54:36;;;;;;;4.70;4.22;;;21.90;99.90;;;;;;5072549;28;20265;-73
2023/06/02 07:57:03;;;;;;;4.28;3.88;;;22.10;99.90;;;;;;5072774;28;20206;-73
2023/06/02 07:59:31;;;;;;;4.75;4.35;;;22.20;99.90;;;;;;5071746;28;20279;-72
2023/06/02 08:01:58;;;;;;;4.20;3.80;;;22.40;99.90;;;;;;5072290;28;20645;-72
2023/06/02 08:04:27;;;;;;;6.30;4.07;;;22.20;99.90;;;;;;5072726;28;20290;-76
2023/06/02 08:06:55;;;;;;;5.05;4.03;;;22.40;99.90;;;;;;5072517;28;20206;-72
2023/06/02 08:09:22;;;;;;;4.47;4.07;;;22.40;99.90;;;;;;5072369;28;20252;-72
2023/06/02 08:11:50;;;;;;;4.70;4.30;;;22.60;99.90;;;;;;5071778;28;20763;-74
2023/06/02 08:14:17;;;;;;;4.30;3.90;;;22.60;99.90;;;;;;5071918;28;20234;-73
2023/06/02 08:16:45;;;;;;;5.13;3.83;;;22.60;99.90;;;;;;5072103;28;20206;-77
2023/06/02 08:19:12;;;;;;;3.40;3.10;;;22.60;99.90;;;;;;5072116;28;20206;-71
2023/06/02 08:21:41;;;;;;;6.15;4.03;;;22.70;99.90;;;;;;5071235;28;20241;-75
2023/06/02 08:24:08;;;;;;;6.10;4.35;;;22.90;99.90;;;;;;5072134;28;20719;-74
2023/06/02 08:26:39;;;;;;;4.78;4.20;;;23.00;99.90;;;;;;5071594;28;20295;-74
2023/06/02 08:29:08;;;;;;;5.45;3.88;;;23.10;99.90;;;;;;5071666;28;20271;-78
2023/06/02 08:31:35;;;;;;;4.50;4.10;;;23.20;99.90;;;;;;5071172;28;20260;-76
2023/06/02 08:34:04;;;;;;;4.70;4.30;;;23.50;99.90;;;;;;5071494;28;20265;-78
2023/06/02 08:36:32;;;;;;;6.43;3.90;;;23.20;99.90;;;;;;5070044;28;20238;-79
2023/06/02 08:39:05;;;;;;;4.45;4.03;;;23.10;99.90;;;;;;5059358;28;20213;-72
2023/06/02 08:41:36;;;;;;;5.05;4.05;;;23.20;99.90;;;;;;5070797;28;20206;-76
2023/06/02 08:44:03;;;;;;;4.15;3.70;;;23.40;99.90;;;;;;5071511;28;20210;-81
2023/06/02 08:46:31;;;;;;;4.30;3.90;;;23.20;99.90;;;;;;5071358;28;20209;-71
2023/06/02 08:48:59;;;;;;;5.35;4.45;;;23.40;99.90;;;;;;5071399;28;20263;-72
2023/06/02 08:51:27;;;;;;;4.63;3.50;;;23.50;99.90;;;;;;5071754;28;20241;-73
2023/06/02 08:53:54;;;;;;;4.25;3.88;;;23.60;99.90;;;;;;5071490;28;20210;-73
2023/06/02 08:56:21;;;;;;;4.15;3.35;;;24.10;99.90;;;;;;5071456;28;20220;-71
2023/06/02 08:58:48;;;;;;;4.90;3.42;;;24.10;99.90;;;;;;5070790;28;20248;-72
2023/06/02 09:01:16;;;;;;;7.43;3.63;;;24.50;99.90;;;;;;5071049;28;20290;-75
2023/06/02 09:03:46;;;;;;;5.72;3.75;;;24.80;99.90;;;;;;5070948;28;20248;-72
2023/06/02 09:06:21;;;;;;;3.65;3.25;;;24.80;99.90;;;;;;5070985;28;20281;-74
2023/06/02 09:08:58;;;;;;;3.85;3.55;;;25.00;99.90;;;;;;5070526;28;20698;-71
2023/06/02 09:11:25;;;;;;;3.58;3.25;;;25.20;99.90;;;;;;5087419;28;20300;-72
2023/06/02 09:13:53;;;;;;;4.13;3.72;;;25.30;99.90;;;;;;5091344;28;20212;-74
2023/06/02 09:16:21;;;;;;;4.32;3.60;;;25.70;99.90;;;;;;5091192;28;20245;-72
2023/06/02 09:18:58;;;;;;;3.83;3.53;;;25.40;99.90;;;;;;5090780;28;20675;-72
2023/06/02 09:21:27;;;;;;;4.55;4.15;;;25.40;99.90;;;;;;5091187;28;20220;-72
2023/06/02 09:23:57;;;;;;;3.60;3.30;;;25.70;99.90;;;;;;5091434;28;20700;-72
2023/06/02 09:26:26;;;;;;;4.50;4.07;;;26.10;99.90;;;;;;5091199;28;20241;-74
2023/06/02 09:29:02;;;;;;;4.53;4.13;;;27.20;99.90;;;;;;5090704;28;20638;-72
2023/06/02 09:31:42;;;;;;;4.90;4.05;;;29.00;99.90;;;;;;5090875;28;20209;-71
2023/06/02 09:34:09;;;;;;;4.88;4.13;;;32.00;99.90;;;;;;5089954;28;20236;-73
2023/06/02 09:36:38;;;;;;;5.90;4.20;;;34.80;99.90;;;;;;5090759;28;20228;-71
2023/06/02 09:39:07;;;;;;;4.32;4.03;;;35.20;99.90;;;;;;5090827;28;20236;-73
2023/06/02 09:41:35;;;;;;;5.50;4.30;;;35.90;99.90;;;;;;5079078;28;20645;-72
2023/06/02 09:44:04;;;;;;;4.32;4.00;;;37.90;99.90;;;;;;5070561;28;20263;-72
2023/06/02 09:46:39;;;;;;;4.63;4.22;;;38.10;99.90;;;;;;5070080;28;20262;-71
2023/06/02 09:49:06;;;;;;;3.63;3.42;;;38.30;99.90;;;;;;5070326;28;20240;-72
2023/06/02 09:51:35;;;;;;;4.70;4.30;;;38.00;99.90;;;;;;5070783;28;20207;-79
2023/06/02 09:54:03;;;;;;;4.63;4.28;;;39.20;99.90;;;;;;5090534;28;20286;-76
2023/06/02 09:56:36;;;;;;;4.22;3.92;;;39.00;99.90;;;;;;5090257;28;20211;-77
2023/06/02 09:59:05;;;;;;;4.47;4.00;;;37.90;99.90;;;;;;5090697;28;20777;-76
2023/06/02 10:01:32;;;;;;;4.20;3.80;;;39.90;99.90;;;;;;5090459;28;20209;-75
2023/06/02 10:03:59;;;;;;;5.75;4.45;;;38.70;99.90;;;;;;5090459;28;20240;-75
2023/06/02 10:06:41;;;;;;;5.00;4.55;;;37.30;99.90;;;;;;5090619;28;20240;-82
2023/06/02 10:09:22;;;;;;;5.88;4.25;;;38.70;99.90;;;;;;5090468;28;20244;-80
2023/06/02 10:12:03;;;;;;;4.72;4.22;;;40.00;99.90;;;;;;5089999;28;20620;-75
2023/06/02 10:14:51;;;;;;;4.65;4.25;;;39.60;99.90;;;;;;5090103;28;20263;-73
2023/06/02 10:17:27;;;;;;;5.53;4.28;;;39.10;99.90;;;;;;5065049;28;20232;-77
2023/06/02 10:20:19;;;;;;;5.40;4.90;;;38.70;99.90;;;;;;5090299;28;20212;-76
2023/06/02 10:23:05;;;;;;;3.88;3.65;;;38.70;99.90;;;;;;5090240;28;20697;-77
2023/06/02 10:25:41;;;;;;;6.13;4.80;;;38.70;99.90;;;;;;5088335;28;20208;-78
2023/06/02 10:28:10;;;;;;;5.32;3.45;;;38.50;99.90;;;;;;5090360;28;20240;-79
2023/06/02 10:30:37;;;;;;;4.65;4.25;;;39.40;99.90;;;;;;5089711;28;20204;-73
2023/06/02 10:33:04;;;;;;;5.82;4.15;;;35.00;99.90;;;;;;5090213;28;20692;-74
2023/06/02 10:35:59;;;;;;;4.05;3.65;;;32.10;99.90;;;;;;5090014;28;20264;-77
2023/06/02 10:38:28;;;;;;;5.95;4.97;;;29.40;99.90;;;;;;5090033;28;20231;-73
2023/06/02 10:40:55;;;;;;;5.72;4.00;;;28.30;99.90;;;;;;5084471;28;20232;-73
2023/06/02 10:43:23;;;;;;;4.85;4.30;;;27.90;99.90;;;;;;5070538;28;20271;-80
2023/06/02 10:45:51;;;;;;;5.50;4.40;;;27.70;99.90;;;;;;5072047;28;20201;-77
2023/06/02 10:48:38;;;;;;;4.60;4.20;;;28.10;99.90;;;;;;5073797;28;20743;-77
2023/06/02 10:51:05;;;;;;;4.40;3.97;;;27.90;99.90;;;;;;5073557;28;20626;-76
2023/06/02 10:53:32;;;;;;;4.20;3.90;;;27.80;99.90;;;;;;5073432;28;20210;-79
2023/06/02 10:56:39;;;;;;;4.05;3.67;;;27.40;99.90;;;;;;5073805;28;20244;-75
2023/06/02 10:59:09;;;;;;;4.20;3.80;;;27.40;99.90;;;;;;5073734;28;20279;-71
2023/06/02 11:01:47;;;;;;;4.40;3.70;;;27.50;99.90;;;;;;5073264;28;20709;-73
2023/06/02 11:04:31;;;;;;;3.17;2.97;;;27.60;99.90;;;;;;5073656;28;20206;-73
2023/06/02 11:07:18;;;;;;;3.47;3.17;;;27.40;99.90;;;;;;5073199;28;20206;-74
2023/06/02 11:09:45;;;;;;;3.58;3.28;;;27.40;99.90;;;;;;5072955;28;20209;-73
2023/06/02 11:12:13;;;;;;;3.70;3.38;;;27.50;99.90;;;;;;5073819;28;20644;-72
2023/06/02 11:15:19;;;;;;;6.30;3.92;;;27.70;99.90;;;;;;5072869;28;20206;-74
2023/06/02 11:17:48;;;;;;;3.67;3.33;;;27.50;99.90;;;;;;5072963;28;20405;-71
2023/06/02 11:20:17;;;;;;;3.70;3.40;;;27.70;99.90;;;;;;5073262;28;20225;-77
2023/06/02 11:22:44;;;;;;;4.68;4.15;;;27.90;99.90;;;;;;5072897;28;20308;-73
2023/06/02 11:25:11;;;;;;;4.68;3.47;;;28.00;99.90;;;;;;5073135;28;20826;-78
2023/06/02 11:27:41;;;;;;;4.65;4.18;;;27.80;99.90;;;;;;5073022;28;20241;-72
2023/06/02 11:30:11;;;;;;;4.22;3.88;;;27.80;99.90;;;;;;5072894;28;20202;-72
2023/06/02 11:32:39;;;;;;;4.70;4.07;;;27.90;99.90;;;;;;5072647;28;20250;-77
2023/06/02 11:35:08;;;;;;;5.70;3.80;;;27.80;99.90;;;;;;5072835;28;20229;-75
2023/06/02 11:37:38;;;;;;;4.47;4.07;;;28.00;99.90;;;;;;5072610;28;20252;-72
2023/06/02 11:40:07;;;;;;;3.78;3.40;;;28.00;99.90;;;;;;5072945;28;20202;-74
2023/06/02 11:42:44;;;;;;;4.53;4.10;;;28.20;99.90;;;;;;5072599;28;20209;-73
2023/06/02 11:45:22;;;;;;;4.10;3.80;;;28.20;99.90;;;;;;5072812;28;20711;-71
2023/06/02 11:47:58;;;;;;;3.90;3.60;;;28.20;99.90;;;;;;5059350;28;20248;-78
2023/06/02 11:50:25;;;;;;;4.45;3.30;;;28.10;99.90;;;;;;5072912;28;20202;-77
2023/06/02 11:52:53;;;;;;;3.45;3.15;;;27.90;99.90;;;;;;5058874;28;20234;-72
2023/06/02 11:55:20;;;;;;;4.07;3.67;;;27.90;99.90;;;;;;5072393;28;20261;-72
2023/06/02 11:57:47;;;;;;;3.83;3.53;;;28.10;99.90;;;;;;5071245;28;20248;-75
2023/06/02 12:00:16;;;;;;;4.63;3.38;;;28.20;99.90;;;;;;5072837;28;20241;-71
2023/06/02 12:02:48;;;;;;;3.50;3.20;;;28.10;99.90;;;;;;5071888;28;20199;-75
2023/06/02 12:05:34;;;;;;;3.95;3.63;;;28.10;99.90;;;;;;5072559;28;20689;-72
2023/06/02 12:08:12;;;;;;;3.92;3.55;;;27.80;99.90;;;;;;5071747;28;20240;-76
2023/06/02 12:10:39;;;;;;;3.55;3.25;;;28.00;99.90;;;;;;5071904;28;20244;-76
2023/06/02 12:13:06;;;;;;;2.63;2.42;;;27.70;99.90;;;;;;5072174;28;20206;-72
2023/06/02 12:15:35;;;;;;;3.67;3.38;;;27.80;99.90;;;;;;5071966;28;20237;-71
2023/06/02 12:18:03;;;;;;;4.13;3.67;;;28.10;99.90;;;;;;5058088;28;20587;-75
2023/06/02 12:20:41;;;;;;;3.85;3.50;;;28.30;99.90;;;;;;5071704;28;20437;-72
2023/06/02 12:23:09;;;;;;;3.58;3.28;;;28.40;99.90;;;;;;5072089;28;20233;-72
2023/06/02 12:25:37;;;;;;;4.60;4.18;;;28.20;99.90;;;;;;5071903;28;20303;-72
2023/06/02 12:28:12;;;;;;;6.05;4.50;;;28.30;99.90;;;;;;5072233;28;20206;-74
2023/06/02 12:30:39;;;;;;;3.90;3.53;;;28.10;99.90;;;;;;5072064;28;20229;-82
2023/06/02 12:33:10;;;;;;;4.22;3.92;;;28.20;99.90;;;;;;5071576;28;20245;-74
2023/06/02 12:35:39;;;;;;;4.20;3.60;;;28.50;99.90;;;;;;5071266;28;20710;-71
2023/06/02 12:38:08;;;;;;;4.30;3.92;;;28.60;99.90;;;;;;5071995;28;20206;-79
2023/06/02 12:40:35;;;;;;;5.05;3.63;;;28.20;99.90;;;;;;5071685;28;20651;-82
2023/06/02 12:43:02;;;;;;;3.67;3.17;;;28.40;99.90;;;;;;5071948;28;20248;-76
2023/06/02 12:45:30;;;;;;;3.80;3.50;;;28.70;99.90;;;;;;5071625;28;20238;-76
2023/06/02 12:47:57;;;;;;;3.85;3.40;;;28.80;99.90;;;;;;5071748;28;20209;-85
2023/06/02 12:50:25;;;;;;;3.75;3.45;;;28.80;99.90;;;;;;5072136;28;20267;-77
2023/06/02 12:52:53;;;;;;;4.30;3.90;;;28.80;99.90;;;;;;5058107;28;20230;-76
2023/06/02 12:55:20;;;;;;;3.67;3.38;;;28.60;99.90;;;;;;5071964;28;20257;-82